Mount Morgan, Australia
Current Conditions -  °F | °C
As of 10:30 AM on Friday 19 Dec 2014 (Local Time) from YBRK Reporting Station
Rain Showers Rain Showers  
Wind Chill: 79°   Ceiling: 11000
Heat Index: 81°   Visibility: 6mi
Dew Point: 70°   Wind: 10mph
Humidity: 74%   Direction: 110°ESE
Pressure: 29.88"   Gusts: NA
Location:  23.65°S, 150.39°E
Report Text: YBRK 190030Z 11009KT 9999 -SHRA FEW025 OVC110 26/21 Q1012
Loading
Personal Weather Stations






























Interactive Weather Map New forecast layout! Learn more

10-Day Weather Forecast

Advertisements
Track Severe Weather on mobile